Time;durP1;ratioP1;P1;durP2;ratioP2;P2;SDS_P1;SDS_P2;PMS_P1;PMS_P2;Temp;Humidity;BMP_temperature;BMP_pressure;BME280_temperature;BME280_humidity;BME280_pressure;Samples;Min_cycle;Max_cycle;Signal;HPM_P1;HPM_P2
2023/08/01 00:02:02;;;;;;;11.37;8.30;;;;;;;;;;5036185;28;20230;-91
2023/08/01 00:04:33;;;;;;;13.47;8.20;;;;;;;;;;5049608;28;20226;-92
2023/08/01 00:07:01;;;;;;;12.67;8.47;;;;;;;;;;5036812;28;20189;-92
2023/08/01 00:09:27;;;;;;;11.77;8.23;;;;;;;;;;5055031;28;20241;-92
2023/08/01 00:11:54;;;;;;;10.97;8.20;;;;;;;;;;5055426;28;20183;-91
2023/08/01 00:14:24;;;;;;;11.53;8.57;;;;;;;;;;5055177;28;20204;-91
2023/08/01 00:16:50;;;;;;;11.53;8.43;;;;;;;;;;5055495;28;20184;-92
2023/08/01 00:19:16;;;;;;;12.27;9.03;;;;;;;;;;5055122;28;20179;-91
2023/08/01 00:21:48;;;;;;;11.47;8.50;;;;;;;;;;5055902;28;20180;-91
2023/08/01 00:24:14;;;;;;;11.73;9.47;;;;;;;;;;5055359;28;20172;-90
2023/08/01 00:26:42;;;;;;;14.33;8.97;;;;;;;;;;5055023;28;20194;-91
2023/08/01 00:29:11;;;;;;;11.57;7.33;;;;;;;;;;5055260;28;20241;-91
2023/08/01 00:31:53;;;;;;;9.87;7.10;;;;;;;;;;5054685;28;20184;-92
2023/08/01 00:34:19;;;;;;;9.83;5.73;;;;;;;;;;5055307;28;20188;-91
2023/08/01 00:36:45;;;;;;;8.27;5.40;;;;;;;;;;5054980;28;20231;-92
2023/08/01 00:39:17;;;;;;;7.43;5.60;;;;;;;;;;5054740;28;20207;-91
2023/08/01 00:41:43;;;;;;;7.50;5.33;;;;;;;;;;5054496;28;20183;-92
2023/08/01 00:44:09;;;;;;;8.40;4.57;;;;;;;;;;5054552;28;20188;-91
2023/08/01 00:46:38;;;;;;;5.97;4.20;;;;;;;;;;5055005;28;20176;-91
2023/08/01 00:49:08;;;;;;;5.80;4.50;;;;;;;;;;5054994;28;20183;-91
2023/08/01 00:51:39;;;;;;;11.27;4.53;;;;;;;;;;5054800;28;20176;-92
2023/08/01 00:54:10;;;;;;;8.73;4.87;;;;;;;;;;5054520;28;20184;-92
2023/08/01 00:56:37;;;;;;;9.20;4.60;;;;;;;;;;5054215;28;20271;-92
2023/08/01 00:59:06;;;;;;;7.37;4.43;;;;;;;;;;5053965;28;20172;-91
2023/08/01 01:01:34;;;;;;;9.90;5.17;;;;;;;;;;5054631;28;20172;-91
2023/08/01 01:04:03;;;;;;;9.07;4.90;;;;;;;;;;5054742;28;20203;-92
2023/08/01 01:06:34;;;;;;;10.20;5.20;;;;;;;;;;5054257;28;20180;-91
2023/08/01 01:09:00;;;;;;;14.53;5.67;;;;;;;;;;5053969;28;20176;-91
2023/08/01 01:11:29;;;;;;;10.10;5.03;;;;;;;;;;5053931;28;20271;-91
2023/08/01 01:13:55;;;;;;;8.93;5.50;;;;;;;;;;5054408;28;20176;-92
2023/08/01 01:16:21;;;;;;;9.87;5.60;;;;;;;;;;5053924;28;20215;-91
2023/08/01 01:18:47;;;;;;;8.60;5.83;;;;;;;;;;5054101;28;20183;-91
2023/08/01 01:21:18;;;;;;;8.63;5.63;;;;;;;;;;5054518;28;20210;-91
2023/08/01 01:23:45;;;;;;;11.60;6.37;;;;;;;;;;5054140;28;20179;-92
2023/08/01 01:26:16;;;;;;;9.90;6.40;;;;;;;;;;5037578;28;20305;-92
2023/08/01 01:28:43;;;;;;;11.50;6.43;;;;;;;;;;5034591;28;20205;-91
2023/08/01 01:31:09;;;;;;;9.93;6.53;;;;;;;;;;5049809;28;20180;-91
2023/08/01 01:33:38;;;;;;;9.83;5.97;;;;;;;;;;5054099;28;20188;-91
2023/08/01 01:36:04;;;;;;;12.20;6.23;;;;;;;;;;5054270;28;20212;-92
2023/08/01 01:38:30;;;;;;;10.33;6.53;;;;;;;;;;5037527;28;20192;-91
2023/08/01 01:40:59;;;;;;;10.03;6.30;;;;;;;;;;5054155;28;20176;-91
2023/08/01 01:43:25;;;;;;;9.57;6.40;;;;;;;;;;5053872;28;20180;-91
2023/08/01 01:45:53;;;;;;;9.97;6.50;;;;;;;;;;5053674;28;20211;-91
2023/08/01 01:48:23;;;;;;;10.67;7.33;;;;;;;;;;5053842;28;20184;-92
2023/08/01 01:50:49;;;;;;;15.20;7.67;;;;;;;;;;5053696;28;20184;-92
2023/08/01 01:53:15;;;;;;;12.67;7.77;;;;;;;;;;5053310;28;20267;-92
2023/08/01 01:55:43;;;;;;;10.87;8.03;;;;;;;;;;5053395;28;20199;-92
2023/08/01 01:58:09;;;;;;;11.70;8.60;;;;;;;;;;5053633;28;20180;-91
2023/08/01 02:00:41;;;;;;;13.40;9.70;;;;;;;;;;5053483;28;20199;-92
2023/08/01 02:03:12;;;;;;;11.73;9.63;;;;;;;;;;5053183;28;20176;-91
2023/08/01 02:05:44;;;;;;;15.87;9.53;;;;;;;;;;5053184;28;20184;-92
2023/08/01 02:08:10;;;;;;;13.83;9.60;;;;;;;;;;5055040;28;20179;-91
2023/08/01 02:10:45;;;;;;;14.70;9.63;;;;;;;;;;5055195;28;20183;-91
2023/08/01 02:13:13;;;;;;;19.50;10.67;;;;;;;;;;5055069;28;20203;-91
2023/08/01 02:15:39;;;;;;;12.63;9.53;;;;;;;;;;5056057;28;20242;-91
2023/08/01 02:18:06;;;;;;;17.57;9.90;;;;;;;;;;5041607;28;20183;-90
2023/08/01 02:20:32;;;;;;;16.23;9.80;;;;;;;;;;5057683;28;20176;-91
2023/08/01 02:23:00;;;;;;;15.60;10.47;;;;;;;;;;5058606;28;20199;-90
2023/08/01 02:25:26;;;;;;;17.73;9.73;;;;;;;;;;5053920;28;20247;-92
2023/08/01 02:27:52;;;;;;;18.13;10.03;;;;;;;;;;5053659;28;20196;-92
2023/08/01 02:30:29;;;;;;;18.83;9.73;;;;;;;;;;5053304;28;20187;-92
2023/08/01 02:32:57;;;;;;;21.63;10.47;;;;;;;;;;5053199;28;20180;-91
2023/08/01 02:35:23;;;;;;;19.43;9.80;;;;;;;;;;5052839;28;20212;-91
2023/08/01 02:37:49;;;;;;;19.43;9.67;;;;;;;;;;5052840;28;20178;-91
2023/08/01 02:40:18;;;;;;;18.27;9.27;;;;;;;;;;5051826;28;20172;-92
2023/08/01 02:43:08;;;;;;;16.63;9.63;;;;;;;;;;5050634;28;20230;-92
2023/08/01 02:45:36;;;;;;;21.33;9.30;;;;;;;;;;5050915;28;20188;-91
2023/08/01 02:48:05;;;;;;;16.27;9.17;;;;;;;;;;5028495;28;20223;-91
2023/08/01 02:50:31;;;;;;;17.70;9.80;;;;;;;;;;5050399;28;20176;-91
2023/08/01 02:53:02;;;;;;;16.20;9.53;;;;;;;;;;5050350;28;20176;-92
2023/08/01 02:55:28;;;;;;;21.90;10.13;;;;;;;;;;5050219;28;20242;-92
2023/08/01 02:57:54;;;;;;;29.30;10.80;;;;;;;;;;5034010;28;20183;-91
2023/08/01 03:00:21;;;;;;;19.43;10.40;;;;;;;;;;5050227;28;20168;-91
2023/08/01 03:02:51;;;;;;;22.33;10.90;;;;;;;;;;5050450;28;20261;-91
2023/08/01 03:05:18;;;;;;;21.53;11.20;;;;;;;;;;5043300;28;20175;-91
2023/08/01 03:07:50;;;;;;;18.50;11.27;;;;;;;;;;5050515;28;20270;-90
2023/08/01 03:10:16;;;;;;;21.37;11.47;;;;;;;;;;5047689;28;20175;-90
2023/08/01 03:12:42;;;;;;;22.47;11.83;;;;;;;;;;5049962;28;20176;-92
2023/08/01 03:15:10;;;;;;;25.67;13.20;;;;;;;;;;5051035;28;20215;-91
2023/08/01 03:17:37;;;;;;;24.23;12.70;;;;;;;;;;5051367;28;20180;-91
2023/08/01 03:20:03;;;;;;;29.60;12.43;;;;;;;;;;5049756;28;20267;-90
2023/08/01 03:22:44;;;;;;;23.70;12.57;;;;;;;;;;5053193;28;20184;-91
2023/08/01 03:25:10;;;;;;;22.27;12.37;;;;;;;;;;5052140;28;20223;-92
2023/08/01 03:27:39;;;;;;;24.50;12.20;;;;;;;;;;5054364;28;20273;-91
2023/08/01 03:30:08;;;;;;;28.17;12.83;;;;;;;;;;5055799;28;20184;-91
2023/08/01 03:32:37;;;;;;;21.27;11.60;;;;;;;;;;5040170;28;20208;-90
2023/08/01 03:35:07;;;;;;;21.00;11.07;;;;;;;;;;5056791;28;20212;-91
2023/08/01 03:37:42;;;;;;;22.93;11.00;;;;;;;;;;5056563;28;20203;-91
2023/08/01 03:40:09;;;;;;;20.40;11.27;;;;;;;;;;5056650;28;20179;-91
2023/08/01 03:42:35;;;;;;;24.70;11.30;;;;;;;;;;5056321;28;20180;-90
2023/08/01 03:45:05;;;;;;;26.77;11.70;;;;;;;;;;5056167;28;20187;-91
2023/08/01 03:47:31;;;;;;;21.00;11.33;;;;;;;;;;5056186;28;20271;-91
2023/08/01 03:50:00;;;;;;;27.67;11.40;;;;;;;;;;5055981;28;20179;-91
2023/08/01 03:52:26;;;;;;;26.33;11.90;;;;;;;;;;5056101;28;20188;-91
2023/08/01 03:54:56;;;;;;;27.10;11.10;;;;;;;;;;5055640;28;20290;-90
2023/08/01 03:57:24;;;;;;;25.70;11.80;;;;;;;;;;5035748;28;20188;-91
2023/08/01 03:59:50;;;;;;;30.23;11.67;;;;;;;;;;5035795;28;20238;-90
2023/08/01 04:02:16;;;;;;;24.10;11.33;;;;;;;;;;5035859;28;20186;-90
2023/08/01 04:04:45;;;;;;;22.90;11.43;;;;;;;;;;5035904;28;20226;-90
2023/08/01 04:07:11;;;;;;;24.80;10.43;;;;;;;;;;5035544;28;20212;-91
2023/08/01 04:09:40;;;;;;;21.27;10.33;;;;;;;;;;5035607;28;20231;-90
2023/08/01 04:12:08;;;;;;;19.73;10.20;;;;;;;;;;5049793;28;20203;-91
2023/08/01 04:14:35;;;;;;;23.13;9.63;;;;;;;;;;5055498;28;20219;-91
2023/08/01 04:17:01;;;;;;;21.37;9.73;;;;;;;;;;5055931;28;20180;-91
2023/08/01 04:19:30;;;;;;;23.53;10.07;;;;;;;;;;5055555;28;20221;-91
2023/08/01 04:21:56;;;;;;;25.30;9.63;;;;;;;;;;5055170;28;20180;-90
2023/08/01 04:24:30;;;;;;;18.57;8.90;;;;;;;;;;5055057;28;20172;-91
2023/08/01 04:26:57;;;;;;;17.07;9.33;;;;;;;;;;5054860;28;20179;-90
2023/08/01 04:29:25;;;;;;;27.73;9.43;;;;;;;;;;5055282;28;20184;-90
2023/08/01 04:31:51;;;;;;;18.40;8.80;;;;;;;;;;5054823;28;20203;-90
2023/08/01 04:34:18;;;;;;;22.27;9.37;;;;;;;;;;5054069;28;20187;-91
2023/08/01 04:36:49;;;;;;;21.93;9.40;;;;;;;;;;5055107;28;20206;-90
2023/08/01 04:39:15;;;;;;;19.90;9.37;;;;;;;;;;5038875;28;20226;-92
2023/08/01 04:41:42;;;;;;;20.10;9.63;;;;;;;;;;5055356;28;20176;-91
2023/08/01 04:44:10;;;;;;;21.70;9.10;;;;;;;;;;5055404;28;20176;-90
2023/08/01 04:46:36;;;;;;;25.63;10.10;;;;;;;;;;5055295;28;20179;-91
2023/08/01 04:49:02;;;;;;;17.90;9.53;;;;;;;;;;5054574;28;20188;-91
2023/08/01 04:51:28;;;;;;;20.03;8.73;;;;;;;;;;5054748;28;20188;-91
2023/08/01 04:53:58;;;;;;;20.83;9.00;;;;;;;;;;5051605;28;20176;-91
2023/08/01 04:56:24;;;;;;;19.07;8.90;;;;;;;;;;5050109;28;20227;-91
2023/08/01 04:58:50;;;;;;;24.00;9.00;;;;;;;;;;5055067;28;20237;-90
2023/08/01 05:01:21;;;;;;;16.40;8.50;;;;;;;;;;5050222;28;20176;-91
2023/08/01 05:03:47;;;;;;;19.17;8.33;;;;;;;;;;5034901;28;20250;-91
2023/08/01 05:06:15;;;;;;;21.30;8.53;;;;;;;;;;5043823;28;20176;-91
2023/08/01 05:08:41;;;;;;;19.73;8.53;;;;;;;;;;5054399;28;20262;-91
2023/08/01 05:11:07;;;;;;;16.70;8.60;;;;;;;;;;5038001;28;20188;-92
2023/08/01 05:13:34;;;;;;;17.57;8.33;;;;;;;;;;5054769;28;20337;-91
2023/08/01 05:16:03;;;;;;;15.73;8.80;;;;;;;;;;5054497;28;20269;-90
2023/08/01 05:18:29;;;;;;;17.03;8.60;;;;;;;;;;5054029;28;20176;-90
2023/08/01 05:20:55;;;;;;;17.67;8.83;;;;;;;;;;5054488;28;20184;-92
2023/08/01 05:23:23;;;;;;;20.67;8.97;;;;;;;;;;5054073;28;20187;-91
2023/08/01 05:25:49;;;;;;;18.90;8.93;;;;;;;;;;5054165;28;20224;-91
2023/08/01 05:28:19;;;;;;;20.60;9.23;;;;;;;;;;5052649;28;20203;-90
2023/08/01 05:30:50;;;;;;;17.73;8.50;;;;;;;;;;5048816;28;20171;-91
2023/08/01 05:33:16;;;;;;;16.63;8.80;;;;;;;;;;5050723;28;20279;-91
2023/08/01 05:35:44;;;;;;;17.63;9.10;;;;;;;;;;5051615;28;20203;-91
2023/08/01 05:38:10;;;;;;;16.87;9.07;;;;;;;;;;5030492;28;20187;-93
2023/08/01 05:40:37;;;;;;;23.07;9.67;;;;;;;;;;5048949;28;20270;-92
2023/08/01 05:43:08;;;;;;;16.77;9.40;;;;;;;;;;5050618;28;20238;-92
2023/08/01 05:45:35;;;;;;;18.97;9.57;;;;;;;;;;5050899;28;20176;-91
2023/08/01 05:48:02;;;;;;;17.63;8.80;;;;;;;;;;5053174;28;20247;-92
2023/08/01 05:50:45;;;;;;;17.20;9.80;;;;;;;;;;5054223;28;20203;-92
2023/08/01 05:53:12;;;;;;;20.37;10.00;;;;;;;;;;5053486;28;20179;-91
2023/08/01 05:55:47;;;;;;;17.90;9.93;;;;;;;;;;5053443;28;20219;-93
2023/08/01 05:58:26;;;;;;;;;;;;;;;;;;;;;
2023/08/01 06:00:52;;;;;;;16.40;9.80;;;;;;;;;;5052888;28;20171;-92
2023/08/01 06:03:18;;;;;;;21.73;10.70;;;;;;;;;;5052876;28;20187;-92
2023/08/01 06:05:51;;;;;;;14.60;8.90;;;;;;;;;;5052450;28;20230;-92
2023/08/01 06:08:18;;;;;;;16.80;9.60;;;;;;;;;;5051277;28;20188;-88
2023/08/01 06:10:52;;;;;;;16.13;9.03;;;;;;;;;;5029373;28;20180;-91
2023/08/01 06:13:18;;;;;;;25.13;9.53;;;;;;;;;;5051051;28;20184;-91
2023/08/01 06:15:46;;;;;;;18.10;9.50;;;;;;;;;;5050603;28;20208;-91
2023/08/01 06:18:12;;;;;;;20.70;8.63;;;;;;;;;;5050511;28;20176;-92
2023/08/01 06:20:41;;;;;;;19.83;8.27;;;;;;;;;;5048513;28;20274;-91
2023/08/01 06:23:10;;;;;;;21.00;8.67;;;;;;;;;;5047055;28;20176;-92
2023/08/01 06:25:36;;;;;;;18.57;9.43;;;;;;;;;;5047895;28;20219;-91
2023/08/01 06:28:02;;;;;;;17.53;8.03;;;;;;;;;;5049935;28;20294;-91
2023/08/01 06:30:36;;;;;;;15.17;8.57;;;;;;;;;;5050486;28;20190;-91
2023/08/01 06:33:10;;;;;;;18.47;8.57;;;;;;;;;;5050776;28;20190;-91
2023/08/01 06:35:40;;;;;;;16.07;8.20;;;;;;;;;;5049714;28;20211;-91
2023/08/01 06:38:06;;;;;;;18.80;8.03;;;;;;;;;;5048644;28;20203;-91
2023/08/01 06:40:36;;;;;;;14.53;7.37;;;;;;;;;;5050553;28;20180;-90
2023/08/01 06:43:05;;;;;;;16.97;7.87;;;;;;;;;;5050712;28;20179;-91
2023/08/01 06:45:41;;;;;;;16.77;8.03;;;;;;;;;;5051503;28;20179;-90
2023/08/01 06:48:09;;;;;;;16.83;7.80;;;;;;;;;;5050802;28;20179;-91
2023/08/01 06:50:38;;;;;;;16.73;7.47;;;;;;;;;;5052187;28;20271;-90
2023/08/01 06:53:25;;;;;;;13.50;6.63;;;;;;;;;;5052743;28;20188;-91
2023/08/01 06:55:52;;;;;;;13.10;6.97;;;;;;;;;;5053091;28;20207;-92
2023/08/01 06:58:18;;;;;;;15.77;6.60;;;;;;;;;;5056212;28;20175;-92
2023/08/01 07:00:50;;;;;;;20.90;7.30;;;;;;;;;;5035521;28;20192;-91
2023/08/01 07:03:16;;;;;;;16.53;7.23;;;;;;;;;;5052340;28;20180;-92
2023/08/01 07:05:45;;;;;;;16.60;6.87;;;;;;;;;;5056464;28;20209;-91
2023/08/01 07:08:14;;;;;;;15.20;6.50;;;;;;;;;;5052338;28;20180;-89
2023/08/01 07:10:47;;;;;;;13.50;6.80;;;;;;;;;;5056495;28;20187;-90
2023/08/01 07:13:15;;;;;;;10.70;6.03;;;;;;;;;;5057214;28;20179;-91
2023/08/01 07:15:45;;;;;;;16.17;6.23;;;;;;;;;;5051312;28;20211;-90
2023/08/01 07:18:18;;;;;;;15.63;6.27;;;;;;;;;;5055990;28;20180;-91
2023/08/01 07:20:44;;;;;;;11.97;6.20;;;;;;;;;;5046900;28;20168;-90
2023/08/01 07:23:11;;;;;;;13.30;5.53;;;;;;;;;;5055879;28;20187;-90
2023/08/01 07:25:37;;;;;;;12.97;6.20;;;;;;;;;;5056094;28;20219;-91
2023/08/01 07:28:16;;;;;;;;;;;;;;;;;;;;;
2023/08/01 07:30:45;;;;;;;11.87;5.50;;;;;;;;;;5053881;28;20190;-92
2023/08/01 07:33:19;;;;;;;11.57;5.77;;;;;;;;;;5041180;28;20222;-91
2023/08/01 07:35:52;;;;;;;13.80;5.43;;;;;;;;;;5045981;28;20304;-90
2023/08/01 07:38:21;;;;;;;11.43;4.97;;;;;;;;;;5035818;28;20222;-91
2023/08/01 07:41:16;;;;;;;13.43;5.23;;;;;;;;;;5036858;28;20180;-90
2023/08/01 07:50:23;;;;;;;9.53;4.80;;;;;;;;;;5053178;28;20248;-90
2023/08/01 07:52:49;;;;;;;8.37;4.53;;;;;;;;;;5056341;28;20188;-90
2023/08/01 07:55:18;;;;;;;11.20;4.30;;;;;;;;;;5056314;28;20210;-89
2023/08/01 07:57:44;;;;;;;9.93;4.03;;;;;;;;;;5054208;28;20172;-89
2023/08/01 08:03:34;;;;;;;10.67;4.30;;;;;;;;;;4966994;28;20186;-89
2023/08/01 08:15:51;;;;;;;5.70;3.57;;;;;;;;;;5052893;28;20238;-90
2023/08/01 08:18:22;;;;;;;7.13;3.83;;;;;;;;;;5045819;28;20267;-90
2023/08/01 08:20:51;;;;;;;9.83;3.93;;;;;;;;;;5039006;28;20183;-88
2023/08/01 08:23:38;;;;;;;5.73;3.60;;;;;;;;;;5048133;28;20248;-90
2023/08/01 08:26:12;;;;;;;8.60;4.00;;;;;;;;;;5044324;28;20246;-89
2023/08/01 08:28:39;;;;;;;19.07;5.60;;;;;;;;;;5032064;28;20208;-88
2023/08/01 08:31:05;;;;;;;10.37;4.00;;;;;;;;;;5051957;28;20186;-89
2023/08/01 08:33:35;;;;;;;10.13;3.90;;;;;;;;;;5052358;28;20207;-88
2023/08/01 08:36:01;;;;;;;9.57;4.23;;;;;;;;;;5049855;28;20203;-89
2023/08/01 08:38:29;;;;;;;9.37;4.20;;;;;;;;;;5048078;28;20172;-89
2023/08/01 08:41:02;;;;;;;9.83;4.13;;;;;;;;;;5048073;28;20171;-88
2023/08/01 08:43:34;;;;;;;11.63;4.33;;;;;;;;;;5052402;28;20168;-89
2023/08/01 08:46:01;;;;;;;7.87;4.00;;;;;;;;;;5051270;28;20244;-88
2023/08/01 08:48:31;;;;;;;7.70;3.97;;;;;;;;;;5035990;28;20276;-87
2023/08/01 08:51:00;;;;;;;11.23;3.83;;;;;;;;;;5049212;28;20183;-88
2023/08/01 08:53:30;;;;;;;7.40;3.53;;;;;;;;;;5054208;28;20183;-88
2023/08/01 08:55:56;;;;;;;9.60;4.23;;;;;;;;;;5050680;28;20299;-87
2023/08/01 08:58:22;;;;;;;8.77;3.97;;;;;;;;;;5052985;28;20176;-87
2023/08/01 09:00:52;;;;;;;12.77;4.20;;;;;;;;;;5050405;28;20211;-88
2023/08/01 09:03:19;;;;;;;7.67;3.80;;;;;;;;;;5051658;28;20172;-87
2023/08/01 09:05:51;;;;;;;8.23;3.70;;;;;;;;;;5051719;28;20191;-89
2023/08/01 09:08:42;;;;;;;5.77;2.60;;;;;;;;;;5053633;28;20187;-88
2023/08/01 09:11:08;;;;;;;7.83;2.90;;;;;;;;;;5051940;28;20184;-88
2023/08/01 09:13:50;;;;;;;7.77;3.10;;;;;;;;;;5052615;28;20187;-89
2023/08/01 09:16:36;;;;;;;7.47;3.23;;;;;;;;;;5050907;28;20199;-90
2023/08/01 09:19:06;;;;;;;6.27;3.20;;;;;;;;;;5038598;28;20265;-89
2023/08/01 09:21:38;;;;;;;7.07;2.87;;;;;;;;;;5049875;28;20180;-88
2023/08/01 09:24:15;;;;;;;6.17;2.60;;;;;;;;;;5048282;28;20181;-87
2023/08/01 09:26:41;;;;;;;6.80;3.10;;;;;;;;;;5048692;28;20223;-88
2023/08/01 09:29:16;;;;;;;5.83;2.63;;;;;;;;;;5052203;28;20192;-88
2023/08/01 09:31:45;;;;;;;6.10;2.67;;;;;;;;;;5052551;28;20186;-88
2023/08/01 09:34:23;;;;;;;6.37;2.73;;;;;;;;;;5050701;28;20278;-88
2023/08/01 09:36:50;;;;;;;10.03;2.70;;;;;;;;;;5052046;28;20215;-89
2023/08/01 09:39:23;;;;;;;5.00;2.70;;;;;;;;;;5042115;28;20184;-87
2023/08/01 09:42:05;;;;;;;5.40;2.73;;;;;;;;;;5046419;28;20207;-88
2023/08/01 09:44:31;;;;;;;7.27;2.40;;;;;;;;;;5037621;28;20195;-87
2023/08/01 09:47:00;;;;;;;6.07;2.80;;;;;;;;;;5050480;28;20262;-89
2023/08/01 09:49:29;;;;;;;4.37;2.57;;;;;;;;;;5050419;28;20247;-87
2023/08/01 09:51:55;;;;;;;6.30;2.40;;;;;;;;;;5050626;28;20184;-87
2023/08/01 09:54:30;;;;;;;8.07;2.33;;;;;;;;;;5053384;28;20179;-87
2023/08/01 09:56:56;;;;;;;4.53;2.10;;;;;;;;;;5034538;28;20237;-86
2023/08/01 09:59:25;;;;;;;5.57;2.20;;;;;;;;;;5052467;28;20176;-87
2023/08/01 10:01:59;;;;;;;4.63;2.63;;;;;;;;;;5033824;28;20188;-88
2023/08/01 10:04:30;;;;;;;6.20;2.33;;;;;;;;;;5053180;28;20178;-87
2023/08/01 10:07:00;;;;;;;4.30;2.20;;;;;;;;;;5049903;28;20263;-88
2023/08/01 10:09:36;;;;;;;5.93;2.30;;;;;;;;;;5052729;28;20184;-88
2023/08/01 10:12:03;;;;;;;7.73;2.77;;;;;;;;;;5052476;28;20279;-87
2023/08/01 10:14:32;;;;;;;5.67;2.47;;;;;;;;;;5039410;28;20176;-87
2023/08/01 10:16:59;;;;;;;5.67;2.80;;;;;;;;;;5036858;28;20175;-86
2023/08/01 10:19:26;;;;;;;5.93;2.40;;;;;;;;;;5051085;28;20176;-86
2023/08/01 10:21:55;;;;;;;7.27;2.60;;;;;;;;;;5048840;28;20188;-86
2023/08/01 10:24:21;;;;;;;6.93;2.57;;;;;;;;;;5048663;28;20183;-87
2023/08/01 10:26:47;;;;;;;5.00;2.30;;;;;;;;;;5031776;28;20227;-88
2023/08/01 10:29:16;;;;;;;7.43;2.47;;;;;;;;;;5060916;28;20203;-88
2023/08/01 10:31:52;;;;;;;6.05;2.30;;;;;;;;;;5044441;28;20185;-90
2023/08/01 10:34:29;;;;;;;6.72;2.50;;;;;;;;;;5044024;28;20195;-89
2023/08/01 10:37:19;;;;;;;4.93;2.17;;;;;;;;;;5053252;28;20189;-89
2023/08/01 10:39:45;;;;;;;6.20;2.30;;;;;;;;;;5053401;28;20184;-88
2023/08/01 10:42:20;;;;;;;4.97;2.10;;;;;;;;;;5052552;28;20196;-89
2023/08/01 10:44:53;;;;;;;4.43;1.95;;;;;;;;;;5051011;28;20288;-87
2023/08/01 10:47:27;;;;;;;5.35;2.10;;;;;;;;;;5047419;28;20248;-87
2023/08/01 10:49:58;;;;;;;6.32;2.10;;;;;;;;;;5041248;28;20199;-89
2023/08/01 10:52:30;;;;;;;5.07;2.15;;;;;;;;;;5048742;28;20184;-88
2023/08/01 10:55:05;;;;;;;6.82;1.98;;;;;;;;;;5052038;28;20279;-86
2023/08/01 10:57:35;;;;;;;7.90;1.92;;;;;;;;;;5049552;28;20180;-86
2023/08/01 11:00:01;;;;;;;3.80;2.15;;;;;;;;;;5048053;28;20181;-87
2023/08/01 11:02:31;;;;;;;4.20;2.17;;;;;;;;;;5052848;28;20187;-87
2023/08/01 11:05:09;;;;;;;7.18;2.33;;;;;;;;;;5049080;28;20180;-87
2023/08/01 11:07:35;;;;;;;7.88;2.15;;;;;;;;;;5051819;28;20179;-89
2023/08/01 11:13:12;;;;;;;5.50;2.60;;;;;;;;;;5033519;28;20181;-91
2023/08/01 11:16:17;;;;;;;;;;;;;;;;;;;;;
2023/08/01 11:19:16;;;;;;;7.95;2.60;;;;;;;;;;5019424;28;20184;-90
2023/08/01 11:28:18;;;;;;;8.20;2.53;;;;;;;;;;4994867;28;20219;-91
2023/08/01 11:31:00;;;;;;;5.07;2.05;;;;;;;;;;4985133;28;20210;-91
2023/08/01 11:33:31;;;;;;;6.43;2.15;;;;;;;;;;4976239;28;20193;-89
2023/08/01 11:35:59;;;;;;;5.18;2.35;;;;;;;;;;5008647;23;20309;-81
2023/08/01 11:38:26;;;;;;;5.35;2.00;;;;;;;;;;4993199;28;20178;-77
2023/08/01 11:40:52;;;;;;;5.10;2.25;;;;;;;;;;5009546;28;20185;-79
2023/08/01 11:43:18;;;;;;;6.25;2.47;;;;;;;;;;5011416;28;20173;-79
2023/08/01 11:45:51;;;;;;;4.93;2.25;;;;;;;;;;5012969;28;20189;-79
2023/08/01 11:48:18;;;;;;;6.10;2.78;;;;;;;;;;5012874;28;20174;-79
2023/08/01 11:50:44;;;;;;;5.22;2.30;;;;;;;;;;4996344;28;20170;-79
2023/08/01 11:53:21;;;;;;;6.47;2.35;;;;;;;;;;4977023;28;20193;-79
2023/08/01 11:55:47;;;;;;;7.32;2.67;;;;;;;;;;4961063;28;20260;-79
2023/08/01 11:58:14;;;;;;;5.28;2.15;;;;;;;;;;4977081;28;20170;-79
2023/08/01 12:00:41;;;;;;;5.78;2.35;;;;;;;;;;4977014;28;20225;-79
2023/08/01 12:03:12;;;;;;;5.72;2.15;;;;;;;;;;4990896;28;20181;-79
2023/08/01 12:05:40;;;;;;;5.57;2.28;;;;;;;;;;4977927;28;20171;-79
2023/08/01 12:08:13;;;;;;;5.75;2.20;;;;;;;;;;4977836;28;20183;-81
2023/08/01 12:10:49;;;;;;;4.18;1.83;;;;;;;;;;4977648;28;20199;-79
2023/08/01 12:13:25;;;;;;;4.03;1.90;;;;;;;;;;4980166;28;20198;-79
2023/08/01 12:15:52;;;;;;;4.68;2.17;;;;;;;;;;4995886;28;20198;-79
2023/08/01 12:18:25;;;;;;;4.60;2.30;;;;;;;;;;4979894;28;20182;-78
2023/08/01 12:20:51;;;;;;;5.40;2.00;;;;;;;;;;4996991;28;20173;-81
2023/08/01 12:23:17;;;;;;;6.88;2.25;;;;;;;;;;4984369;28;20181;-80
2023/08/01 12:25:43;;;;;;;7.30;2.63;;;;;;;;;;4980753;28;20182;-80
2023/08/01 12:28:09;;;;;;;6.93;2.30;;;;;;;;;;4987400;28;20186;-82
2023/08/01 12:30:35;;;;;;;6.18;2.50;;;;;;;;;;5001917;28;20241;-83
2023/08/01 12:33:02;;;;;;;6.35;2.50;;;;;;;;;;4992301;28;20179;-83
2023/08/01 12:35:28;;;;;;;6.72;1.95;;;;;;;;;;4992168;28;20306;-82
2023/08/01 12:37:54;;;;;;;7.40;1.83;;;;;;;;;;4992326;28;20183;-82
2023/08/01 12:40:20;;;;;;;5.28;1.98;;;;;;;;;;4993119;28;20214;-82
2023/08/01 12:42:47;;;;;;;6.53;2.20;;;;;;;;;;4993008;28;20170;-81
2023/08/01 12:45:13;;;;;;;5.03;2.17;;;;;;;;;;4993533;28;20182;-77
2023/08/01 12:47:39;;;;;;;6.07;2.50;;;;;;;;;;4981926;28;20182;-78
2023/08/01 12:50:06;;;;;;;5.60;2.40;;;;;;;;;;4985329;28;20198;-78
2023/08/01 12:52:32;;;;;;;8.60;2.45;;;;;;;;;;4986234;28;20210;-78
2023/08/01 12:54:58;;;;;;;6.60;2.67;;;;;;;;;;4987745;28;20201;-78
2023/08/01 12:57:24;;;;;;;6.40;2.67;;;;;;;;;;5011740;28;20217;-78
2023/08/01 12:59:50;;;;;;;8.57;2.53;;;;;;;;;;5010449;28;20201;-78
2023/08/01 13:02:16;;;;;;;9.30;2.78;;;;;;;;;;4960505;28;20182;-78
2023/08/01 13:04:42;;;;;;;6.57;2.30;;;;;;;;;;4976610;28;20198;-78
2023/08/01 13:07:08;;;;;;;6.35;2.80;;;;;;;;;;4998960;28;20205;-77
2023/08/01 13:09:34;;;;;;;8.75;2.80;;;;;;;;;;4994886;28;20186;-78
2023/08/01 13:12:00;;;;;;;6.47;2.83;;;;;;;;;;4995058;28;20174;-78
2023/08/01 13:14:26;;;;;;;8.73;3.10;;;;;;;;;;4994729;28;20174;-78
2023/08/01 13:16:52;;;;;;;5.50;2.38;;;;;;;;;;5010905;28;20213;-78
2023/08/01 13:19:19;;;;;;;7.18;2.80;;;;;;;;;;5011120;28;20228;-78
2023/08/01 13:21:46;;;;;;;6.55;2.65;;;;;;;;;;4978720;28;20194;-78
2023/08/01 13:24:12;;;;;;;5.78;2.47;;;;;;;;;;4993550;28;20233;-78
2023/08/01 13:26:38;;;;;;;8.27;2.75;;;;;;;;;;4992693;28;20190;-78
2023/08/01 13:29:04;;;;;;;6.68;2.65;;;;;;;;;;4990353;28;20183;-78
2023/08/01 13:31:30;;;;;;;9.05;2.70;;;;;;;;;;4971654;28;20197;-78
2023/08/01 13:33:56;;;;;;;7.90;2.60;;;;;;;;;;4994557;28;20282;-82
2023/08/01 13:36:22;;;;;;;5.90;2.55;;;;;;;;;;4995341;28;20222;-82
2023/08/01 13:38:48;;;;;;;5.47;2.40;;;;;;;;;;4993051;28;20182;-83
2023/08/01 13:41:15;;;;;;;4.53;2.30;;;;;;;;;;4994407;28;20272;-82
2023/08/01 13:43:41;;;;;;;4.78;2.10;;;;;;;;;;4994829;28;20273;-78
2023/08/01 13:46:18;;;;;;;4.72;2.40;;;;;;;;;;4993623;28;20261;-79
2023/08/01 13:48:45;;;;;;;7.07;2.65;;;;;;;;;;4991433;28;20189;-78
2023/08/01 13:51:11;;;;;;;7.70;2.17;;;;;;;;;;4991576;28;20337;-78
2023/08/01 13:53:40;;;;;;;4.20;2.03;;;;;;;;;;4991100;28;20183;-78
2023/08/01 13:56:13;;;;;;;4.55;2.40;;;;;;;;;;4992804;28;20206;-78
2023/08/01 13:58:42;;;;;;;6.85;2.10;;;;;;;;;;4991428;28;20269;-78
2023/08/01 14:01:09;;;;;;;7.22;2.50;;;;;;;;;;4975761;28;20175;-78
2023/08/01 14:03:38;;;;;;;6.25;2.38;;;;;;;;;;4979548;28;20209;-78
2023/08/01 14:06:11;;;;;;;4.68;2.08;;;;;;;;;;4994766;28;20182;-78
2023/08/01 14:08:37;;;;;;;5.40;2.35;;;;;;;;;;5010169;28;20261;-78
2023/08/01 14:11:04;;;;;;;3.63;1.88;;;;;;;;;;5009944;28;20182;-78
2023/08/01 14:13:30;;;;;;;9.65;2.30;;;;;;;;;;5010315;28;20178;-79
2023/08/01 14:15:56;;;;;;;4.35;2.20;;;;;;;;;;5010334;28;20256;-78
2023/08/01 14:18:22;;;;;;;6.38;2.20;;;;;;;;;;4994382;28;20182;-78
2023/08/01 14:20:48;;;;;;;4.72;2.20;;;;;;;;;;5010081;28;20179;-78
2023/08/01 14:23:14;;;;;;;4.97;2.15;;;;;;;;;;5010164;28;20189;-78
2023/08/01 14:25:40;;;;;;;8.20;2.40;;;;;;;;;;5010443;28;20182;-78
2023/08/01 14:28:06;;;;;;;6.07;2.05;;;;;;;;;;4993971;28;20289;-80
2023/08/01 14:30:32;;;;;;;5.82;2.00;;;;;;;;;;4994022;28;20265;-80
2023/08/01 14:33:02;;;;;;;3.25;1.80;;;;;;;;;;5010377;28;20186;-78
2023/08/01 14:35:28;;;;;;;5.55;1.95;;;;;;;;;;5009303;28;20238;-78
2023/08/01 14:37:55;;;;;;;6.20;2.20;;;;;;;;;;5009519;28;20182;-80
2023/08/01 14:40:21;;;;;;;8.30;2.20;;;;;;;;;;5009826;28;20185;-80
2023/08/01 14:42:48;;;;;;;6.25;2.03;;;;;;;;;;5010031;28;20174;-78
2023/08/01 14:45:14;;;;;;;6.60;2.08;;;;;;;;;;5009753;28;20181;-78
2023/08/01 14:47:41;;;;;;;6.38;2.72;;;;;;;;;;5009669;28;20186;-78
2023/08/01 14:50:08;;;;;;;5.47;1.85;;;;;;;;;;4993970;28;20185;-83
2023/08/01 14:52:34;;;;;;;6.68;2.00;;;;;;;;;;5009844;28;20174;-82
2023/08/01 14:54:59;;;;;;;5.25;1.90;;;;;;;;;;4993423;28;20220;-82
2023/08/01 14:57:26;;;;;;;4.00;2.10;;;;;;;;;;4989578;28;20248;-78
2023/08/01 14:59:52;;;;;;;5.90;2.10;;;;;;;;;;4976036;28;20186;-78
2023/08/01 15:02:18;;;;;;;5.15;1.88;;;;;;;;;;4974039;28;20186;-78
2023/08/01 15:04:44;;;;;;;4.65;1.98;;;;;;;;;;4974161;28;20214;-78
2023/08/01 15:07:10;;;;;;;7.15;2.20;;;;;;;;;;4974000;28;20236;-78
2023/08/01 15:09:36;;;;;;;7.82;2.47;;;;;;;;;;4977908;28;20186;-78
2023/08/01 15:12:02;;;;;;;6.68;2.42;;;;;;;;;;4981975;28;20277;-78
2023/08/01 15:14:28;;;;;;;16.60;2.90;;;;;;;;;;4970374;28;20422;-79
2023/08/01 15:16:55;;;;;;;10.50;2.67;;;;;;;;;;4986704;28;20214;-79
2023/08/01 15:19:21;;;;;;;7.45;2.78;;;;;;;;;;4979507;28;20497;-79